Terminal Aerodrome Forecast
Issued by NWS Charleston, WV

Current Version | Previous Version | Text Only | Print | Product List | Glossary Off
Versions: 1 2 3 4 5 6 7 8 9 10 11 12 13 14 15 16 17 18 19 20 21 22 23 24 25 26 27 28

905
FTUS41 KRLX 191931 AAA
TAFEKN
TAF AMD
KEKN 191931Z 1920/2018 27011G20KT P6SM SCT015 OVC025
      TEMPO 1920/1921 2SM -SHSN BKN015
     FM192100 28012G22KT 3SM -SN OVC018
      TEMPO 1921/1923 3/4SM -SHSN OVC007
     FM192300 28010G18KT 1SM -SN OVC015
     FM200500 28009KT 3SM -SN OVC020
     FM200700 28008KT P6SM OVC025
     FM201100 27006KT P6SM SCT035
     FM201200 26005KT P6SM SKC=

USA.gov is the U.S. government's official web portal to all federal, state and local government web resources and services.